Time;durP1;ratioP1;P1;durP2;ratioP2;P2;SDS_P1;SDS_P2;PMS_P1;PMS_P2;Temp;Humidity;BMP_temperature;BMP_pressure;BME280_temperature;BME280_humidity;BME280_pressure;Samples;Min_cycle;Max_cycle;Signal;HPM_P1;HPM_P2
2022/10/01 00:00:56;;;;;;;8.68;3.67;;;14.90;99.90;;;;;;5035166;28;20053;-69
2022/10/01 00:03:24;;;;;;;8.95;3.20;;;14.80;99.90;;;;;;5052019;28;20049;-69
2022/10/01 00:06:05;;;;;;;9.40;2.78;;;14.90;99.90;;;;;;5052722;28;20051;-69
2022/10/01 00:08:32;;;;;;;10.05;2.60;;;14.80;99.90;;;;;;5053032;28;20106;-68
2022/10/01 00:11:00;;;;;;;8.27;3.55;;;14.80;99.90;;;;;;5019270;28;20080;-68
2022/10/01 00:13:29;;;;;;;7.07;2.83;;;14.80;99.90;;;;;;5032627;28;20099;-68
2022/10/01 00:15:56;;;;;;;9.07;2.50;;;14.80;99.90;;;;;;5027194;28;20046;-69
2022/10/01 00:18:23;;;;;;;6.05;2.92;;;14.80;99.90;;;;;;5051811;28;20110;-68
2022/10/01 00:20:50;;;;;;;13.93;3.45;;;14.80;99.90;;;;;;5053052;28;20044;-68
2022/10/01 00:23:18;;;;;;;7.00;2.70;;;14.70;99.90;;;;;;5053365;28;20392;-68
2022/10/01 00:25:45;;;;;;;11.60;2.70;;;14.70;99.90;;;;;;5052073;28;20075;-68
2022/10/01 00:28:12;;;;;;;9.50;2.72;;;14.70;99.90;;;;;;5053291;28;20080;-68
2022/10/01 00:30:45;;;;;;;6.55;2.53;;;14.70;99.90;;;;;;5051537;28;20071;-69
2022/10/01 00:33:12;;;;;;;9.73;2.90;;;14.70;99.90;;;;;;5052100;28;20045;-68
2022/10/01 00:35:39;;;;;;;11.90;3.70;;;14.70;99.90;;;;;;5051764;28;20140;-69
2022/10/01 00:38:06;;;;;;;12.63;2.88;;;14.70;99.90;;;;;;5051769;28;20040;-69
2022/10/01 00:40:33;;;;;;;11.45;3.20;;;14.70;99.90;;;;;;5051348;28;20041;-68
2022/10/01 00:43:00;;;;;;;11.45;3.25;;;14.70;99.90;;;;;;5052940;28;20045;-68
2022/10/01 00:45:27;;;;;;;15.93;3.83;;;14.70;99.90;;;;;;5051888;28;20118;-69
2022/10/01 00:47:55;;;;;;;12.32;4.00;;;14.70;99.90;;;;;;5051349;28;20110;-69
2022/10/01 00:50:31;;;;;;;11.23;3.60;;;14.70;99.90;;;;;;5050984;28;20041;-68
2022/10/01 00:53:06;;;;;;;10.93;4.20;;;14.70;99.90;;;;;;5036466;28;20041;-68
2022/10/01 00:55:43;;;;;;;12.50;3.75;;;14.70;99.90;;;;;;5035008;28;20056;-68
2022/10/01 01:01:36;;;;;;;11.88;3.72;;;14.60;99.90;;;;;;5051993;28;20045;-68
2022/10/01 01:04:15;;;;;;;11.00;3.17;;;14.60;99.90;;;;;;5051308;28;20095;-68
2022/10/01 01:10:06;;;;;;;14.50;4.18;;;14.60;99.90;;;;;;5052352;28;20045;-68
2022/10/01 01:12:58;;;;;;;12.48;4.15;;;14.60;99.90;;;;;;5030428;28;20052;-68
2022/10/01 01:15:37;;;;;;;13.88;3.42;;;14.60;99.90;;;;;;5031474;28;20103;-68
2022/10/01 01:18:14;;;;;;;15.93;3.35;;;14.60;99.90;;;;;;5032223;28;20072;-68
2022/10/01 01:21:06;;;;;;;14.65;3.85;;;14.50;99.90;;;;;;5048843;28;20120;-68
2022/10/01 01:23:45;;;;;;;13.95;4.20;;;14.50;99.90;;;;;;5052241;28;20053;-68
2022/10/01 01:26:12;;;;;;;14.30;4.20;;;14.50;99.90;;;;;;5051974;28;20045;-68
2022/10/01 01:28:43;;;;;;;14.05;3.63;;;14.50;99.90;;;;;;5052040;28;20370;-68
2022/10/01 01:31:13;;;;;;;14.38;3.80;;;14.50;99.90;;;;;;5051049;28;20049;-68
2022/10/01 01:33:42;;;;;;;16.45;4.70;;;14.50;99.90;;;;;;5033916;28;20499;-68
2022/10/01 01:36:14;;;;;;;11.18;4.50;;;14.50;99.90;;;;;;5034634;28;20103;-68
2022/10/01 01:38:48;;;;;;;16.67;4.43;;;14.50;99.90;;;;;;5050802;28;20423;-68
2022/10/01 01:41:15;;;;;;;12.80;4.70;;;14.40;99.90;;;;;;5018928;28;20052;-68
2022/10/01 01:43:44;;;;;;;10.57;4.55;;;14.40;99.90;;;;;;5013907;28;20053;-68
2022/10/01 01:46:12;;;;;;;13.77;3.87;;;14.40;99.90;;;;;;5030250;28;20044;-68
2022/10/01 01:48:40;;;;;;;17.40;4.43;;;14.40;99.90;;;;;;5051209;28;20060;-69
2022/10/01 01:51:23;;;;;;;11.68;4.13;;;14.40;99.90;;;;;;5034282;28;20392;-69
2022/10/01 01:53:50;;;;;;;16.02;4.40;;;14.40;99.90;;;;;;5050658;28;20044;-68
2022/10/01 01:56:17;;;;;;;13.38;5.47;;;14.40;99.90;;;;;;5034192;28;20045;-68
2022/10/01 01:58:44;;;;;;;11.35;3.75;;;14.40;99.90;;;;;;5047898;28;20090;-68
2022/10/01 02:01:30;;;;;;;16.92;4.80;;;14.40;99.90;;;;;;5044693;28;20045;-68
2022/10/01 02:03:57;;;;;;;20.80;5.05;;;14.40;99.90;;;;;;5051214;28;20044;-68
2022/10/01 02:06:33;;;;;;;16.00;4.18;;;14.30;99.90;;;;;;5034156;28;20049;-68
2022/10/01 02:09:29;;;;;;;12.20;4.82;;;14.30;99.90;;;;;;5048183;28;20041;-68
2022/10/01 02:12:31;;;;;;;12.50;4.60;;;14.30;99.90;;;;;;5036487;28;20420;-69
2022/10/01 02:15:39;;;;;;;16.58;4.32;;;14.30;99.90;;;;;;5030591;28;20041;-68
2022/10/01 02:18:32;;;;;;;15.52;4.18;;;14.30;99.90;;;;;;5011681;28;20045;-68
2022/10/01 02:21:09;;;;;;;12.90;4.22;;;14.20;99.90;;;;;;5046066;28;20096;-68
2022/10/01 02:24:02;;;;;;;10.80;3.88;;;14.20;99.90;;;;;;5032826;28;20057;-68
2022/10/01 02:26:29;;;;;;;18.77;5.88;;;14.20;99.90;;;;;;5045401;28;20087;-68
2022/10/01 02:29:00;;;;;;;15.20;4.95;;;14.20;99.90;;;;;;5054451;28;20041;-68
2022/10/01 02:31:28;;;;;;;19.45;5.45;;;14.10;99.90;;;;;;5054091;28;20041;-68
2022/10/01 02:33:56;;;;;;;15.95;4.90;;;14.10;99.90;;;;;;5054209;28;20391;-69
2022/10/01 02:36:23;;;;;;;11.02;4.32;;;14.10;99.90;;;;;;5053916;28;20045;-68
2022/10/01 02:38:50;;;;;;;12.25;4.80;;;14.00;99.90;;;;;;5053950;28;20049;-68
2022/10/01 02:41:22;;;;;;;14.13;4.43;;;14.00;99.90;;;;;;5054000;28;20515;-68
2022/10/01 02:43:53;;;;;;;18.98;5.40;;;14.00;99.90;;;;;;5037557;28;20052;-68
2022/10/01 02:46:27;;;;;;;17.58;5.30;;;13.90;99.90;;;;;;5054332;28;20512;-68
2022/10/01 02:48:54;;;;;;;13.43;4.35;;;13.80;99.90;;;;;;5037347;28;20049;-68
2022/10/01 02:51:43;;;;;;;11.23;4.32;;;13.90;99.90;;;;;;5053911;28;20044;-68
2022/10/01 02:54:17;;;;;;;15.77;4.85;;;13.80;99.90;;;;;;5039700;28;20414;-69
2022/10/01 02:59:31;;;;;;;14.93;4.35;;;13.70;99.90;;;;;;5054086;28;20079;-68
2022/10/01 03:01:58;;;;;;;15.85;4.75;;;13.70;99.90;;;;;;5054753;28;20040;-68
2022/10/01 03:04:25;;;;;;;16.05;5.38;;;13.70;99.90;;;;;;5053653;28;20045;-68
2022/10/01 03:06:52;;;;;;;16.85;4.25;;;13.60;99.90;;;;;;5053518;28;20098;-68
2022/10/01 03:09:19;;;;;;;17.63;6.70;;;13.60;99.90;;;;;;5036359;28;20472;-69
2022/10/01 03:11:46;;;;;;;20.05;5.32;;;13.60;99.90;;;;;;5054449;28;20041;-68
2022/10/01 03:14:13;;;;;;;21.85;5.32;;;13.60;99.90;;;;;;5054708;28;20107;-68
2022/10/01 03:16:39;;;;;;;19.13;5.00;;;13.60;99.90;;;;;;5054020;28;20063;-68
2022/10/01 03:19:07;;;;;;;18.35;4.95;;;13.50;99.90;;;;;;5054053;28;20060;-68
2022/10/01 03:21:33;;;;;;;17.17;5.35;;;13.50;99.90;;;;;;5054460;28;20045;-68
2022/10/01 03:24:01;;;;;;;30.35;6.18;;;13.50;99.90;;;;;;5053144;28;20048;-68
2022/10/01 03:26:28;;;;;;;23.58;5.90;;;13.50;99.90;;;;;;5036505;28;20055;-68
2022/10/01 03:28:55;;;;;;;20.38;5.88;;;13.50;99.90;;;;;;5052764;28;20103;-69
2022/10/01 03:31:22;;;;;;;21.98;5.57;;;13.40;99.90;;;;;;5052973;28;20045;-68
2022/10/01 03:33:49;;;;;;;23.23;6.07;;;13.40;99.90;;;;;;5052815;28;20044;-68
2022/10/01 03:36:16;;;;;;;22.55;5.75;;;13.40;99.90;;;;;;5053334;28;20080;-69
2022/10/01 03:38:43;;;;;;;18.05;5.38;;;13.40;99.90;;;;;;5053871;28;20067;-69
2022/10/01 03:41:10;;;;;;;22.90;5.20;;;13.40;99.90;;;;;;5051455;28;20040;-68
2022/10/01 03:43:37;;;;;;;18.25;4.72;;;13.40;99.90;;;;;;5050824;28;20431;-68
2022/10/01 03:46:04;;;;;;;16.50;4.90;;;13.30;99.90;;;;;;5053972;28;20041;-68
2022/10/01 03:48:31;;;;;;;19.80;5.32;;;13.30;99.90;;;;;;5052380;28;20080;-68
2022/10/01 03:50:58;;;;;;;18.80;5.20;;;13.30;99.90;;;;;;5045359;28;20484;-68
2022/10/01 03:53:26;;;;;;;21.73;5.85;;;13.30;99.90;;;;;;5032717;28;20102;-68
2022/10/01 03:55:53;;;;;;;20.70;4.72;;;13.30;99.90;;;;;;5032361;28;20049;-69
2022/10/01 03:58:22;;;;;;;95.25;68.85;;;13.30;99.90;;;;;;5044957;28;20041;-67
2022/10/01 04:00:49;;;;;;;70.78;51.08;;;13.30;99.90;;;;;;5052112;28;20087;-68
2022/10/01 04:03:16;;;;;;;32.90;17.20;;;13.30;99.90;;;;;;5052620;28;20048;-69
2022/10/01 04:05:43;;;;;;;19.58;6.30;;;13.30;99.90;;;;;;5035466;28;20040;-69
2022/10/01 04:08:11;;;;;;;18.05;5.07;;;13.30;99.90;;;;;;5035464;28;20056;-69
2022/10/01 04:10:37;;;;;;;17.83;3.95;;;13.20;99.90;;;;;;5051884;28;20037;-69
2022/10/01 04:13:05;;;;;;;25.10;7.15;;;13.20;99.90;;;;;;5035232;28;20037;-68
2022/10/01 04:15:32;;;;;;;18.08;5.15;;;13.20;99.90;;;;;;5051685;28;20049;-68
2022/10/01 04:18:00;;;;;;;21.08;4.28;;;13.10;99.90;;;;;;5034750;28;20056;-69
2022/10/01 04:20:27;;;;;;;22.02;5.72;;;13.10;99.90;;;;;;5051913;28;20358;-68
2022/10/01 04:22:55;;;;;;;18.67;5.20;;;13.10;99.90;;;;;;5052927;28;20109;-68
2022/10/01 04:25:21;;;;;;;17.50;4.35;;;13.10;99.90;;;;;;5068179;28;20036;-68
2022/10/01 04:27:59;;;;;;;20.75;5.00;;;13.10;99.90;;;;;;5031842;28;20056;-69
2022/10/01 04:30:28;;;;;;;20.35;4.90;;;13.10;99.90;;;;;;5053966;28;20422;-68
2022/10/01 04:32:55;;;;;;;17.40;4.57;;;13.00;99.90;;;;;;5034634;28;20072;-68
2022/10/01 04:35:22;;;;;;;19.85;4.57;;;13.00;99.90;;;;;;5035244;28;20353;-68
2022/10/01 04:38:02;;;;;;;20.70;4.60;;;13.00;99.90;;;;;;5053193;28;20041;-68
2022/10/01 04:40:29;;;;;;;15.93;4.97;;;13.00;99.90;;;;;;5067743;28;20511;-68
2022/10/01 04:42:56;;;;;;;19.00;4.25;;;13.00;99.90;;;;;;5056109;28;20037;-68
2022/10/01 04:45:23;;;;;;;18.75;4.25;;;12.90;99.90;;;;;;5035503;28;20056;-68
2022/10/01 04:47:52;;;;;;;18.40;4.50;;;12.90;99.90;;;;;;5059630;28;20080;-69
2022/10/01 04:50:20;;;;;;;14.00;3.75;;;12.90;99.90;;;;;;5056894;28;20110;-69
2022/10/01 04:52:47;;;;;;;18.30;4.65;;;12.90;99.90;;;;;;5060273;28;20070;-69
2022/10/01 04:55:14;;;;;;;17.25;4.50;;;12.90;99.90;;;;;;5052032;28;20041;-68
2022/10/01 04:57:42;;;;;;;21.45;6.88;;;12.90;99.90;;;;;;5051309;28;20387;-69
2022/10/01 05:00:11;;;;;;;20.00;4.30;;;12.80;99.90;;;;;;5051590;28;20052;-68
2022/10/01 05:02:38;;;;;;;17.67;5.03;;;12.80;99.90;;;;;;5051260;28;20473;-68
2022/10/01 05:05:06;;;;;;;20.40;4.60;;;12.90;99.90;;;;;;5050640;28;20554;-68
2022/10/01 05:07:33;;;;;;;18.95;4.65;;;12.90;99.90;;;;;;5034674;28;20200;-67
2022/10/01 05:10:00;;;;;;;22.00;5.82;;;12.80;99.90;;;;;;5067654;28;20361;-68
2022/10/01 05:12:27;;;;;;;18.80;4.13;;;12.80;99.90;;;;;;5041554;28;20051;-68
2022/10/01 05:14:54;;;;;;;19.65;4.20;;;12.80;99.90;;;;;;5053221;28;20106;-68
2022/10/01 05:17:21;;;;;;;16.48;4.70;;;12.80;99.90;;;;;;5015881;28;20041;-68
2022/10/01 05:19:49;;;;;;;18.58;5.32;;;12.80;99.90;;;;;;5042295;28;20075;-68
2022/10/01 05:22:16;;;;;;;22.08;6.32;;;12.70;99.90;;;;;;5055348;28;20044;-68
2022/10/01 05:24:43;;;;;;;21.00;5.00;;;12.70;99.90;;;;;;5052210;28;20037;-68
2022/10/01 05:27:12;;;;;;;19.60;5.38;;;12.70;99.90;;;;;;5051130;28;20057;-68
2022/10/01 05:29:40;;;;;;;14.27;4.80;;;12.70;99.90;;;;;;5054983;28;20480;-68
2022/10/01 05:32:08;;;;;;;21.85;5.65;;;12.70;99.90;;;;;;5061957;28;20083;-68
2022/10/01 05:34:34;;;;;;;20.90;5.60;;;12.70;99.90;;;;;;5051412;28;20037;-68
2022/10/01 05:37:01;;;;;;;25.33;5.30;;;12.70;99.90;;;;;;5050950;28;20037;-68
2022/10/01 05:39:29;;;;;;;22.65;6.57;;;12.70;99.90;;;;;;5031749;28;20107;-68
2022/10/01 05:41:56;;;;;;;23.23;5.60;;;12.70;99.90;;;;;;5044034;28;20048;-68
2022/10/01 05:44:23;;;;;;;23.60;6.28;;;12.70;99.90;;;;;;5036471;28;20038;-68
2022/10/01 05:46:52;;;;;;;21.60;5.07;;;12.70;99.90;;;;;;5039593;28;20052;-68
2022/10/01 05:49:19;;;;;;;22.88;6.57;;;12.70;99.90;;;;;;5051091;28;20077;-68
2022/10/01 05:51:46;;;;;;;22.48;6.60;;;12.70;99.90;;;;;;5059266;28;20036;-68
2022/10/01 05:54:56;;;;;;;19.13;4.15;;;12.80;99.90;;;;;;5056309;28;20041;-68
2022/10/01 05:57:23;;;;;;;24.27;5.63;;;12.70;99.90;;;;;;5061072;28;20041;-68
2022/10/01 05:59:50;;;;;;;15.20;4.60;;;12.70;99.90;;;;;;5040079;28;20053;-68
2022/10/01 06:02:17;;;;;;;21.38;5.35;;;12.70;99.90;;;;;;5050953;28;20480;-68
2022/10/01 06:04:44;;;;;;;22.95;4.82;;;12.70;99.90;;;;;;5051506;28;20080;-68
2022/10/01 06:07:12;;;;;;;22.63;5.85;;;12.70;99.90;;;;;;5051569;28;20496;-68
2022/10/01 06:09:39;;;;;;;25.48;5.53;;;12.70;99.90;;;;;;5052201;28;20052;-68
2022/10/01 06:12:09;;;;;;;22.45;5.72;;;12.70;99.90;;;;;;5050899;28;20048;-68
2022/10/01 06:14:36;;;;;;;16.52;5.53;;;12.70;99.90;;;;;;5051533;28;20052;-68
2022/10/01 06:17:03;;;;;;;15.90;5.03;;;12.70;99.90;;;;;;5055215;28;20045;-68
2022/10/01 06:19:30;;;;;;;21.88;5.95;;;12.70;99.90;;;;;;5053563;28;20041;-68
2022/10/01 06:21:57;;;;;;;24.95;5.68;;;12.70;99.90;;;;;;5063847;28;20044;-68
2022/10/01 06:24:25;;;;;;;16.77;4.90;;;12.70;99.90;;;;;;5057960;28;20045;-69
2022/10/01 06:26:52;;;;;;;25.85;5.93;;;12.70;99.90;;;;;;5038808;28;20055;-68
2022/10/01 06:29:19;;;;;;;25.63;5.35;;;12.70;99.90;;;;;;5050868;28;20481;-68
2022/10/01 06:31:46;;;;;;;22.15;6.13;;;12.70;99.90;;;;;;5054723;28;20098;-68
2022/10/01 06:34:13;;;;;;;24.40;5.47;;;12.70;99.90;;;;;;5057511;28;20041;-68
2022/10/01 06:36:40;;;;;;;24.02;5.05;;;12.80;99.90;;;;;;5056318;28;20041;-68
2022/10/01 06:39:07;;;;;;;18.73;5.45;;;12.70;99.90;;;;;;5057272;28;20449;-68
2022/10/01 06:41:34;;;;;;;21.58;6.35;;;12.80;99.90;;;;;;5032793;28;20819;-68
2022/10/01 06:44:02;;;;;;;18.92;6.28;;;12.80;99.90;;;;;;5052391;28;20505;-68
2022/10/01 06:46:29;;;;;;;19.10;5.20;;;12.80;99.90;;;;;;5053920;28;20037;-68
2022/10/01 06:48:55;;;;;;;22.25;5.07;;;12.80;99.90;;;;;;5055243;28;20500;-68
2022/10/01 06:52:47;;;;;;;21.83;5.55;;;12.80;99.90;;;;;;5052240;28;20122;-69
2022/10/01 06:54:09;;;;;;;19.55;4.53;;;12.80;99.90;;;;;;5034161;28;20107;-69
2022/10/01 06:56:36;;;;;;;25.52;7.03;;;12.80;99.90;;;;;;5059574;28;20044;-68
2022/10/01 06:59:03;;;;;;;18.80;5.57;;;12.90;99.90;;;;;;5050412;28;20508;-68
2022/10/01 07:01:31;;;;;;;17.30;4.70;;;12.90;99.90;;;;;;5051805;28;20509;-68
2022/10/01 07:03:59;;;;;;;20.38;6.38;;;12.90;99.90;;;;;;5061206;28;20045;-69
2022/10/01 07:06:26;;;;;;;25.70;6.43;;;12.90;99.90;;;;;;5050941;28;20049;-68
2022/10/01 07:08:54;;;;;;;24.92;5.70;;;13.00;99.90;;;;;;5051573;28;20120;-68
2022/10/01 07:11:21;;;;;;;20.17;5.65;;;13.00;99.90;;;;;;5053769;28;20418;-68
2022/10/01 07:13:49;;;;;;;17.83;4.82;;;13.00;99.90;;;;;;5055165;28;20045;-68
2022/10/01 07:16:20;;;;;;;23.83;6.13;;;13.10;99.90;;;;;;5053032;28;20041;-68
2022/10/01 07:18:47;;;;;;;28.05;4.93;;;13.10;99.90;;;;;;5055607;28;20045;-68
2022/10/01 07:21:14;;;;;;;21.73;5.13;;;13.10;99.90;;;;;;5055415;28;20048;-68
2022/10/01 07:23:42;;;;;;;18.88;5.15;;;13.10;99.90;;;;;;5072583;28;20059;-68
2022/10/01 07:26:09;;;;;;;17.65;4.57;;;13.10;99.90;;;;;;5048722;28;20106;-68
2022/10/01 07:28:36;;;;;;;22.65;6.05;;;13.20;99.90;;;;;;5055719;28;20495;-69
2022/10/01 07:31:11;;;;;;;23.75;5.20;;;13.30;99.90;;;;;;5054434;28;20095;-68
2022/10/01 07:33:38;;;;;;;18.38;4.85;;;13.30;99.90;;;;;;5053938;28;20135;-69
2022/10/01 07:36:07;;;;;;;23.95;4.82;;;13.30;99.90;;;;;;5043588;28;20045;-68
2022/10/01 07:38:34;;;;;;;22.88;6.07;;;13.40;99.90;;;;;;5054126;28;20111;-68
2022/10/01 07:41:02;;;;;;;26.20;5.80;;;13.40;99.90;;;;;;5054519;28;20676;-69
2022/10/01 07:43:29;;;;;;;24.73;6.60;;;13.50;99.90;;;;;;5049201;28;20056;-69
2022/10/01 07:45:58;;;;;;;25.00;6.75;;;13.40;99.90;;;;;;5033941;28;20075;-68
2022/10/01 07:48:26;;;;;;;23.77;6.10;;;13.50;99.90;;;;;;5049926;28;20046;-68
2022/10/01 07:50:53;;;;;;;22.10;5.03;;;13.60;99.90;;;;;;5055924;28;20048;-69
2022/10/01 07:53:22;;;;;;;25.55;5.30;;;13.60;99.90;;;;;;5051117;28;20040;-68
2022/10/01 07:55:49;;;;;;;21.52;4.85;;;13.60;99.90;;;;;;5019038;28;20061;-69
2022/10/01 07:58:17;;;;;;;16.98;4.57;;;13.60;99.90;;;;;;5042284;28;20056;-68
2022/10/01 08:00:44;;;;;;;18.77;5.38;;;13.70;99.90;;;;;;5058469;28;20041;-68
2022/10/01 08:03:11;;;;;;;19.92;4.65;;;13.70;99.90;;;;;;5053277;28;20048;-68
2022/10/01 08:05:39;;;;;;;15.98;4.68;;;13.70;99.90;;;;;;5055763;28;20047;-68
2022/10/01 08:08:07;;;;;;;86.90;68.72;;;13.80;99.90;;;;;;5064826;28;20036;-77
2022/10/01 08:10:35;;;;;;;91.43;57.72;;;13.80;99.90;;;;;;5046037;28;20083;-68
2022/10/01 08:13:13;;;;;;;24.13;11.98;;;13.90;99.90;;;;;;5062576;28;20045;-68
2022/10/01 08:15:45;;;;;;;18.33;7.78;;;14.00;99.90;;;;;;5041081;28;20037;-68
2022/10/01 08:18:12;;;;;;;20.00;5.88;;;14.00;99.90;;;;;;5030692;28;20041;-68
2022/10/01 08:20:39;;;;;;;20.98;4.97;;;14.00;99.90;;;;;;5037300;28;20499;-67
2022/10/01 08:23:09;;;;;;;17.35;5.07;;;14.00;99.90;;;;;;5053079;28;20051;-68
2022/10/01 08:25:36;;;;;;;17.55;4.90;;;14.00;99.90;;;;;;5071644;28;20051;-68
2022/10/01 08:28:03;;;;;;;22.02;4.53;;;14.10;99.90;;;;;;5058577;28;20051;-68
2022/10/01 08:30:30;;;;;;;17.50;4.15;;;14.10;99.90;;;;;;5054344;28;20093;-68
2022/10/01 08:32:58;;;;;;;17.92;4.55;;;14.10;99.90;;;;;;5064581;28;20048;-68
2022/10/01 08:35:26;;;;;;;20.27;5.97;;;14.20;99.90;;;;;;5051510;28;20033;-68
2022/10/01 08:37:56;;;;;;;15.90;4.15;;;14.20;99.90;;;;;;5053802;28;20477;-68
2022/10/01 08:40:23;;;;;;;18.67;4.57;;;14.20;99.90;;;;;;5039052;28;20044;-68
2022/10/01 08:43:05;;;;;;;15.48;4.95;;;14.30;99.90;;;;;;5035431;28;20456;-69
2022/10/01 08:45:40;;;;;;;47.00;32.92;;;14.30;99.90;;;;;;5056123;28;20462;-65
2022/10/01 08:48:24;;;;;;;29.35;17.88;;;14.30;99.90;;;;;;5050165;28;20511;-68
2022/10/01 08:50:56;;;;;;;16.55;5.28;;;14.40;99.90;;;;;;5051333;28;20049;-69
2022/10/01 08:53:33;;;;;;;13.93;4.97;;;14.50;99.90;;;;;;5058334;28;20036;-68
2022/10/01 08:56:00;;;;;;;15.40;4.72;;;14.50;99.90;;;;;;5036356;28;20469;-68
2022/10/01 08:58:34;;;;;;;20.00;5.38;;;14.50;99.90;;;;;;5058000;28;20033;-68
2022/10/01 09:01:01;;;;;;;22.40;5.28;;;14.60;99.90;;;;;;5058409;28;20059;-68
2022/10/01 09:03:29;;;;;;;29.90;4.65;;;14.60;99.90;;;;;;5052631;28;20083;-69
2022/10/01 09:06:14;;;;;;;11.38;3.55;;;14.60;99.90;;;;;;5053580;28;20073;-68
2022/10/01 09:08:44;;;;;;;14.00;4.75;;;14.60;99.90;;;;;;5051774;28;20056;-68
2022/10/01 09:11:31;;;;;;;14.77;3.63;;;14.60;99.90;;;;;;5056408;28;20040;-69
2022/10/01 09:14:11;;;;;;;14.00;3.97;;;14.60;99.90;;;;;;5052337;28;20041;-68
2022/10/01 09:16:57;;;;;;;24.92;16.45;;;14.60;99.90;;;;;;5050845;28;20044;-68
2022/10/01 09:20:05;;;;;;;14.48;4.90;;;14.70;99.90;;;;;;5041905;28;20087;-67
2022/10/01 09:22:40;;;;;;;15.38;4.05;;;14.80;99.90;;;;;;5063697;28;20032;-69
2022/10/01 09:25:23;;;;;;;13.45;3.88;;;14.80;99.90;;;;;;5033326;28;20043;-68
2022/10/01 09:27:51;;;;;;;12.80;4.20;;;14.90;99.90;;;;;;5052968;28;20484;-67
2022/10/01 09:30:23;;;;;;;17.52;4.13;;;15.00;99.90;;;;;;5068130;28;20119;-65
2022/10/01 09:32:59;;;;;;;16.80;4.10;;;15.10;99.90;;;;;;5013392;28;20049;-66
2022/10/01 09:35:44;;;;;;;14.43;4.10;;;15.20;99.90;;;;;;5051037;28;20036;-65
2022/10/01 09:38:22;;;;;;;13.88;4.03;;;15.20;99.90;;;;;;5051905;28;20056;-65
2022/10/01 09:40:53;;;;;;;13.77;3.97;;;15.30;99.90;;;;;;5034355;28;20049;-66
2022/10/01 09:43:22;;;;;;;12.88;3.55;;;15.40;99.90;;;;;;5034421;28;20120;-65
2022/10/01 09:45:50;;;;;;;13.88;4.20;;;15.50;99.90;;;;;;5034488;28;20048;-65
2022/10/01 09:48:17;;;;;;;11.15;4.03;;;15.50;99.90;;;;;;5049322;28;20128;-65
2022/10/01 09:50:54;;;;;;;14.52;2.97;;;15.70;99.90;;;;;;5050338;28;20103;-65
2022/10/01 09:53:37;;;;;;;10.43;3.60;;;15.70;99.90;;;;;;5050852;28;20118;-65
2022/10/01 09:56:22;;;;;;;8.73;3.03;;;15.80;99.90;;;;;;5050466;28;20116;-65
2022/10/01 09:58:52;;;;;;;12.70;3.63;;;15.80;99.90;;;;;;5035866;28;20049;-65
2022/10/01 10:01:41;;;;;;;11.55;3.78;;;15.90;99.90;;;;;;5030368;28;20091;-65
2022/10/01 10:04:09;;;;;;;11.45;3.88;;;15.90;99.90;;;;;;5042563;28;20099;-66
2022/10/01 10:06:36;;;;;;;12.60;3.90;;;15.90;99.90;;;;;;5033829;28;20376;-65
2022/10/01 10:09:03;;;;;;;9.98;3.95;;;16.00;99.90;;;;;;5020299;28;20493;-65
2022/10/01 10:11:31;;;;;;;9.77;3.03;;;16.10;99.90;;;;;;5029996;28;20375;-65
2022/10/01 10:14:01;;;;;;;11.35;3.35;;;16.00;99.90;;;;;;5064456;28;20063;-65
2022/10/01 10:16:29;;;;;;;;;;;16.00;99.90;;;;;;5051084;28;20049;-67
2022/10/01 10:19:10;;;;;;;9.50;2.63;;;15.90;99.90;;;;;;5066883;28;19971;-65
2022/10/01 10:21:37;;;;;;;14.02;3.70;;;15.90;99.90;;;;;;5050955;28;20412;-65
2022/10/01 10:24:06;;;;;;;11.40;3.45;;;15.80;99.90;;;;;;5049986;28;20370;-67
2022/10/01 10:26:37;;;;;;;13.18;4.03;;;15.90;99.90;;;;;;5049434;28;20037;-65
2022/10/01 10:29:07;;;;;;;9.75;3.10;;;15.90;99.90;;;;;;5050742;28;20091;-65
2022/10/01 10:31:41;;;;;;;9.90;2.65;;;16.00;99.90;;;;;;5050453;28;20068;-65
2022/10/01 10:34:16;;;;;;;13.95;4.13;;;16.00;99.90;;;;;;5029757;28;20044;-69
2022/10/01 10:36:44;;;;;;;15.18;3.63;;;16.10;99.90;;;;;;5050090;28;20045;-65
2022/10/01 10:39:38;;;;;;;11.50;3.35;;;16.20;99.90;;;;;;5033889;28;20090;-67
2022/10/01 10:42:05;;;;;;;8.82;3.13;;;16.20;99.90;;;;;;5032601;28;20473;-65
2022/10/01 10:44:38;;;;;;;18.05;3.70;;;16.30;99.90;;;;;;5050073;28;20091;-66
2022/10/01 10:47:09;;;;;;;14.82;3.47;;;16.30;99.90;;;;;;5053970;28;20041;-65
2022/10/01 10:49:59;;;;;;;10.10;2.50;;;16.40;99.90;;;;;;5025845;28;20057;-65
2022/10/01 10:52:35;;;;;;;12.82;3.45;;;16.40;99.90;;;;;;5053817;28;20048;-65
2022/10/01 10:55:24;;;;;;;17.17;3.55;;;16.50;99.90;;;;;;5037813;28;20045;-68
2022/10/01 10:57:52;;;;;;;7.30;2.60;;;16.40;99.90;;;;;;5052114;28;20049;-68
2022/10/01 11:00:24;;;;;;;11.32;2.90;;;16.40;99.90;;;;;;5056964;28;20041;-65
2022/10/01 11:02:59;;;;;;;12.45;5.57;;;16.30;99.90;;;;;;5023455;28;20037;-64
2022/10/01 11:05:38;;;;;;;11.88;5.35;;;16.40;99.90;;;;;;5050296;28;20095;-67
2022/10/01 11:08:06;;;;;;;14.27;3.13;;;16.40;99.90;;;;;;5049533;28;20045;-67
2022/10/01 11:10:48;;;;;;;11.65;3.25;;;16.50;99.90;;;;;;5057268;28;20090;-68
2022/10/01 11:13:21;;;;;;;8.60;3.28;;;16.50;99.90;;;;;;5060844;28;20082;-68
2022/10/01 11:16:39;;;;;;;11.32;2.60;;;16.50;99.90;;;;;;5055703;28;20064;-64
2022/10/01 11:19:34;;;;;;;15.07;4.18;;;16.40;99.90;;;;;;5017244;28;20081;-65
2022/10/01 11:22:07;;;;;;;9.43;2.95;;;16.50;99.90;;;;;;5011674;28;20054;-67
2022/10/01 11:24:49;;;;;;;7.50;2.53;;;16.60;99.90;;;;;;5049795;28;20128;-64
2022/10/01 11:27:51;;;;;;;10.50;3.47;;;16.70;99.90;;;;;;5071623;28;20040;-64
2022/10/01 11:30:23;;;;;;;8.70;3.00;;;16.80;99.90;;;;;;5041329;28;20452;-64
2022/10/01 11:32:50;;;;;;;10.80;3.08;;;17.00;99.90;;;;;;5054582;28;20041;-64
2022/10/01 11:35:55;;;;;;;11.73;3.75;;;17.10;99.90;;;;;;5055317;28;20053;-62
2022/10/01 11:38:39;;;;;;;39.60;22.40;;;17.30;99.90;;;;;;5052215;28;20037;-62
2022/10/01 11:41:20;;;;;;;13.85;6.65;;;17.50;99.90;;;;;;5050286;28;20431;-65
2022/10/01 11:43:53;;;;;;;13.57;4.65;;;17.50;99.90;;;;;;5055065;28;20045;-65
2022/10/01 11:46:57;;;;;;;10.60;3.83;;;17.50;99.90;;;;;;5038332;28;20037;-65
2022/10/01 11:49:27;;;;;;;12.80;4.43;;;17.60;99.90;;;;;;5034495;28;20066;-62
2022/10/01 11:52:22;;;;;;;23.77;13.80;;;17.60;99.90;;;;;;5069521;28;20534;-65
2022/10/01 12:00:35;;;;;;;15.50;6.20;;;17.70;99.90;;;;;;5047786;28;20048;-65
2022/10/01 12:03:03;;;;;;;14.32;3.65;;;17.70;99.90;;;;;;5024908;28;20397;-64
2022/10/01 12:05:30;;;;;;;11.07;3.22;;;17.60;99.90;;;;;;5062896;28;20433;-65
2022/10/01 12:07:58;;;;;;;7.72;3.08;;;17.60;99.90;;;;;;5054692;28;20046;-65
2022/10/01 12:10:53;;;;;;;16.10;3.22;;;17.60;99.90;;;;;;5052563;28;20040;-64
2022/10/01 12:13:35;;;;;;;10.27;2.97;;;17.50;99.90;;;;;;5062729;28;20392;-65
2022/10/01 12:16:21;;;;;;;15.32;4.07;;;17.60;99.90;;;;;;5051846;28;20041;-65
2022/10/01 12:19:00;;;;;;;35.95;23.40;;;17.70;99.90;;;;;;5060146;28;20037;-69
2022/10/01 12:21:38;;;;;;;13.95;5.60;;;17.80;99.90;;;;;;5056635;28;20044;-69
2022/10/01 12:24:13;;;;;;;11.40;4.05;;;17.80;99.90;;;;;;5041822;28;20041;-64
2022/10/01 12:27:13;;;;;;;14.25;4.35;;;17.80;99.90;;;;;;5043843;28;20408;-64
2022/10/01 12:30:17;;;;;;;13.18;3.72;;;17.80;99.90;;;;;;5055271;28;20044;-64
2022/10/01 12:33:11;;;;;;;11.57;3.65;;;17.80;99.90;;;;;;5039689;28;20468;-64
2022/10/01 12:35:56;;;;;;;8.73;2.42;;;17.80;99.90;;;;;;5036503;28;20045;-64
2022/10/01 12:38:26;;;;;;;10.45;4.28;;;17.80;99.90;;;;;;5069370;28;20037;-64
2022/10/01 12:41:29;;;;;;;12.80;3.58;;;17.70;99.90;;;;;;5040523;28;20049;-65
2022/10/01 12:44:09;;;;;;;14.00;3.75;;;17.70;99.90;;;;;;5052658;28;20040;-64
2022/10/01 12:46:45;;;;;;;11.35;3.17;;;17.70;99.90;;;;;;5051279;28;20106;-64
2022/10/01 12:49:21;;;;;;;13.77;3.10;;;17.60;99.90;;;;;;5031558;28;20049;-64
2022/10/01 12:52:09;;;;;;;9.05;3.38;;;17.80;99.90;;;;;;5040696;28;20037;-65
2022/10/01 12:54:45;;;;;;;14.83;3.67;;;17.90;99.90;;;;;;5064890;28;20044;-64
2022/10/01 12:57:21;;;;;;;10.90;2.95;;;17.90;99.90;;;;;;5067697;28;20043;-64
2022/10/01 13:00:13;;;;;;;12.32;3.33;;;18.00;99.90;;;;;;5052438;28;20041;-64
2022/10/01 13:03:11;;;;;;;85.95;75.15;;;18.00;99.90;;;;;;5040470;28;20116;-65
2022/10/01 13:05:55;;;;;;;16.75;9.02;;;18.20;99.90;;;;;;5072510;28;20114;-64
2022/10/01 13:08:47;;;;;;;10.85;4.93;;;18.20;99.90;;;;;;5039408;28;20049;-64
2022/10/01 13:11:36;;;;;;;12.73;4.38;;;18.30;99.90;;;;;;5051651;28;20049;-65
2022/10/01 13:14:03;;;;;;;10.18;3.35;;;18.30;99.90;;;;;;5050574;28;20045;-64
2022/10/01 13:16:40;;;;;;;11.73;3.33;;;18.30;99.90;;;;;;5034663;28;20045;-64
2022/10/01 13:19:25;;;;;;;9.65;3.00;;;18.20;99.90;;;;;;5035110;28;20507;-65
2022/10/01 13:22:14;;;;;;;11.93;3.17;;;18.10;99.90;;;;;;5051048;28;20040;-64